Time;durP1;ratioP1;P1;durP2;ratioP2;P2;SDS_P1;SDS_P2;PMS_P1;PMS_P2;Temp;Humidity;BMP_temperature;BMP_pressure;BME280_temperature;BME280_humidity;BME280_pressure;Samples;Min_cycle;Max_cycle;Signal;HPM_P1;HPM_P2
2023/04/02 00:02:47;;;;;;;9.10;3.83;;;5.10;99.90;;;;;;5094113;28;20077;-75
2023/04/02 00:05:16;;;;;;;4.53;3.20;;;5.10;99.90;;;;;;5077645;28;20052;-75
2023/04/02 00:07:47;;;;;;;5.78;3.70;;;5.10;99.90;;;;;;5093630;28;20051;-75
2023/04/02 00:10:38;;;;;;;5.10;3.42;;;5.10;99.90;;;;;;5093431;28;20595;-75
2023/04/02 00:13:09;;;;;;;5.93;3.88;;;5.00;99.90;;;;;;5076042;28;20366;-75
2023/04/02 00:15:41;;;;;;;5.35;3.80;;;5.00;99.90;;;;;;5093514;28;20126;-75
2023/04/02 00:18:12;;;;;;;4.90;3.38;;;5.00;99.90;;;;;;5094527;28;20109;-75
2023/04/02 00:20:41;;;;;;;4.93;4.07;;;5.00;99.90;;;;;;5094059;28;20405;-75
2023/04/02 00:23:11;;;;;;;6.03;4.05;;;5.00;99.90;;;;;;5075596;28;20095;-75
2023/04/02 00:25:45;;;;;;;6.53;3.88;;;5.00;99.90;;;;;;5093629;28;20080;-75
2023/04/02 00:28:16;;;;;;;5.40;4.05;;;5.00;99.90;;;;;;5093523;28;20052;-74
2023/04/02 00:30:54;;;;;;;5.05;3.63;;;5.00;99.90;;;;;;5093560;28;20142;-75
2023/04/02 00:33:24;;;;;;;6.13;3.55;;;5.00;99.90;;;;;;5093360;28;20044;-75
2023/04/02 00:35:52;;;;;;;5.68;3.83;;;5.00;99.90;;;;;;5093253;28;20480;-75
2023/04/02 00:38:28;;;;;;;6.07;3.58;;;4.90;99.90;;;;;;5093265;28;20043;-74
2023/04/02 00:40:57;;;;;;;5.40;3.72;;;4.80;99.90;;;;;;5094184;28;20436;-74
2023/04/02 00:43:31;;;;;;;5.57;3.90;;;4.80;99.90;;;;;;5093293;28;20048;-75
2023/04/02 00:46:00;;;;;;;4.57;3.47;;;4.70;99.90;;;;;;5093548;28;20048;-75
2023/04/02 00:48:31;;;;;;;7.30;3.90;;;4.70;99.90;;;;;;5076248;28;20079;-76
2023/04/02 00:51:13;;;;;;;8.68;4.15;;;4.60;99.90;;;;;;5094043;28;20051;-75
2023/04/02 00:53:40;;;;;;;5.32;3.67;;;4.60;99.90;;;;;;5075171;28;20059;-75
2023/04/02 00:56:15;;;;;;;7.85;4.10;;;4.60;99.90;;;;;;5093093;28;20040;-75
2023/04/02 00:58:42;;;;;;;5.10;3.70;;;4.60;99.90;;;;;;5093198;28;20048;-76
2023/04/02 01:01:22;;;;;;;5.28;3.47;;;4.50;99.90;;;;;;5093070;28;20048;-76
2023/04/02 01:03:57;;;;;;;5.63;3.80;;;4.60;99.90;;;;;;5093935;28;20047;-75
2023/04/02 01:06:27;;;;;;;6.50;3.95;;;4.50;99.90;;;;;;5093517;28;20040;-74
2023/04/02 01:08:56;;;;;;;4.20;3.00;;;4.50;99.90;;;;;;5093621;28;20040;-75
2023/04/02 01:11:38;;;;;;;4.82;3.28;;;4.40;99.90;;;;;;5092963;28;20048;-75
2023/04/02 01:14:09;;;;;;;4.90;2.85;;;4.40;99.90;;;;;;5093599;28;20113;-74
2023/04/02 01:16:52;;;;;;;4.95;2.95;;;4.30;99.90;;;;;;5093464;28;20079;-74
2023/04/02 01:19:27;;;;;;;4.07;2.80;;;4.30;99.90;;;;;;5096816;28;20483;-75
2023/04/02 01:22:18;;;;;;;5.97;2.58;;;4.30;99.90;;;;;;5097610;28;20040;-75
2023/04/02 01:24:45;;;;;;;4.13;2.53;;;4.30;99.90;;;;;;5097197;28;20117;-75
2023/04/02 01:27:23;;;;;;;4.20;2.50;;;4.00;99.90;;;;;;5097052;28;20044;-75
2023/04/02 01:29:57;;;;;;;5.25;2.75;;;4.00;99.90;;;;;;5096648;28;20052;-75
2023/04/02 01:32:26;;;;;;;4.47;2.55;;;4.10;99.90;;;;;;5078913;28;20075;-75
2023/04/02 01:34:53;;;;;;;3.97;2.00;;;4.00;99.90;;;;;;5096508;28;20433;-74
2023/04/02 01:37:37;;;;;;;4.03;2.30;;;3.90;99.90;;;;;;5096429;28;20112;-75
2023/04/02 01:40:16;;;;;;;3.53;2.28;;;3.90;99.90;;;;;;5096469;28;20043;-75
2023/04/02 01:42:45;;;;;;;3.78;2.10;;;3.80;99.90;;;;;;5096360;28;20040;-75
2023/04/02 01:45:14;;;;;;;4.32;1.88;;;3.70;99.90;;;;;;5078577;28;20082;-75
2023/04/02 01:47:41;;;;;;;3.55;2.00;;;3.60;99.90;;;;;;5096743;28;20063;-74
2023/04/02 01:50:13;;;;;;;5.78;1.95;;;4.00;99.90;;;;;;5096199;28;20451;-73
2023/04/02 01:52:42;;;;;;;5.70;1.75;;;3.50;99.90;;;;;;5096134;28;20141;-74
2023/04/02 01:55:11;;;;;;;3.38;1.80;;;3.50;99.90;;;;;;5096342;28;20085;-74
2023/04/02 01:57:45;;;;;;;2.75;1.63;;;3.40;99.90;;;;;;5078391;28;20040;-75
2023/04/02 02:00:14;;;;;;;3.00;2.03;;;3.40;99.90;;;;;;5078663;28;20507;-75
2023/04/02 02:02:41;;;;;;;3.88;2.03;;;3.30;99.90;;;;;;5096190;28;20380;-75
2023/04/02 02:05:16;;;;;;;3.03;1.90;;;3.30;99.90;;;;;;5095862;28;20393;-75
2023/04/02 02:07:43;;;;;;;3.85;2.08;;;3.40;99.90;;;;;;5096305;28;20388;-75
2023/04/02 02:10:20;;;;;;;3.50;2.00;;;3.20;99.90;;;;;;5095815;28;20055;-74
2023/04/02 02:12:46;;;;;;;4.57;2.00;;;3.20;99.90;;;;;;5096087;28;20184;-76
2023/04/02 02:15:18;;;;;;;3.08;1.50;;;3.00;99.90;;;;;;5095759;28;20044;-75
2023/04/02 02:17:44;;;;;;;4.45;1.80;;;2.90;99.90;;;;;;5095769;28;20491;-75
2023/04/02 02:20:12;;;;;;;3.47;1.42;;;2.80;99.90;;;;;;5096146;28;20131;-75
2023/04/02 02:22:43;;;;;;;3.63;1.40;;;2.80;99.90;;;;;;5095815;28;20086;-74
2023/04/02 02:25:20;;;;;;;4.32;1.70;;;2.70;99.90;;;;;;5096247;28;20048;-75
2023/04/02 02:28:09;;;;;;;3.67;1.63;;;2.90;99.90;;;;;;5077286;28;20054;-75
2023/04/02 02:30:55;;;;;;;5.53;1.80;;;2.60;99.90;;;;;;5079355;28;20060;-75
2023/04/02 02:33:21;;;;;;;4.60;2.15;;;2.50;99.90;;;;;;5095722;28;20086;-74
2023/04/02 02:36:01;;;;;;;3.35;2.03;;;2.50;99.90;;;;;;5095339;28;20514;-76
2023/04/02 02:38:33;;;;;;;4.22;1.90;;;2.40;99.90;;;;;;5078287;28;20048;-74
2023/04/02 02:41:21;;;;;;;2.58;1.50;;;2.70;99.90;;;;;;5095525;28;20058;-76
2023/04/02 02:44:05;;;;;;;3.65;1.70;;;2.30;99.90;;;;;;5095138;28;20129;-73
2023/04/02 02:46:32;;;;;;;3.70;1.90;;;2.30;99.90;;;;;;5095079;28;20040;-74
2023/04/02 02:49:00;;;;;;;3.35;1.98;;;2.30;99.90;;;;;;5095029;28;20051;-75
2023/04/02 02:51:41;;;;;;;5.45;2.03;;;2.30;99.90;;;;;;5095001;28;20043;-74
2023/04/02 02:54:06;;;;;;;3.95;2.38;;;2.20;99.90;;;;;;5095346;28;20505;-75
2023/04/02 02:56:35;;;;;;;4.18;1.73;;;2.20;99.90;;;;;;5095116;28;20067;-75
2023/04/02 02:59:04;;;;;;;3.50;2.10;;;2.20;99.90;;;;;;5095421;28;20052;-74
2023/04/02 03:01:30;;;;;;;4.95;2.47;;;2.20;99.90;;;;;;5095565;28;20054;-75
2023/04/02 03:03:56;;;;;;;3.33;1.92;;;2.20;99.90;;;;;;5094758;28;20046;-75
2023/04/02 03:06:22;;;;;;;5.55;2.63;;;2.20;99.90;;;;;;5094677;28;20126;-74
2023/04/02 03:09:08;;;;;;;3.55;2.00;;;2.10;99.90;;;;;;5094904;28;20497;-74
2023/04/02 03:12:04;;;;;;;5.30;2.45;;;2.10;99.90;;;;;;5095436;28;20054;-75
2023/04/02 03:14:35;;;;;;;6.30;1.88;;;2.50;99.90;;;;;;5092646;28;20067;-75
2023/04/02 03:17:14;;;;;;;5.60;2.30;;;2.10;99.90;;;;;;5094616;28;20390;-74
2023/04/02 03:19:50;;;;;;;3.17;1.83;;;2.20;99.90;;;;;;5095085;28;20074;-75
2023/04/02 03:22:34;;;;;;;3.35;1.90;;;2.10;99.90;;;;;;5095070;28;20083;-74
2023/04/02 03:25:10;;;;;;;3.88;1.95;;;2.20;99.90;;;;;;5094323;28;20040;-75
2023/04/02 03:27:40;;;;;;;4.70;2.20;;;2.20;99.90;;;;;;5094318;28;20161;-74
2023/04/02 03:30:34;;;;;;;4.82;2.10;;;2.20;99.90;;;;;;5094277;28;20404;-75
2023/04/02 03:33:22;;;;;;;4.18;1.83;;;2.30;99.90;;;;;;5094211;28;20424;-75
2023/04/02 03:36:13;;;;;;;3.92;2.10;;;2.30;99.90;;;;;;5094290;28;20048;-73
2023/04/02 03:38:52;;;;;;;4.40;1.90;;;2.30;99.90;;;;;;5046746;28;20052;-74
2023/04/02 03:41:33;;;;;;;5.05;2.30;;;2.20;99.90;;;;;;5094187;28;20363;-75
2023/04/02 03:44:06;;;;;;;3.97;2.20;;;2.30;99.90;;;;;;5094490;28;20058;-74
2023/04/02 03:46:46;;;;;;;3.10;2.33;;;2.50;99.90;;;;;;5094325;28;20040;-75
2023/04/02 03:49:24;;;;;;;3.47;2.10;;;2.30;99.90;;;;;;5094255;28;20052;-75
2023/04/02 03:51:56;;;;;;;4.35;2.00;;;2.20;99.90;;;;;;5093911;28;20044;-73
2023/04/02 03:54:22;;;;;;;7.18;2.45;;;2.20;99.90;;;;;;5094180;28;20043;-74
2023/04/02 03:56:50;;;;;;;4.97;2.10;;;2.30;99.90;;;;;;5093746;28;20382;-75
2023/04/02 03:59:38;;;;;;;2.95;2.35;;;2.20;99.90;;;;;;5075798;28;20079;-78
2023/04/02 04:02:25;;;;;;;3.92;2.42;;;2.20;99.90;;;;;;5093736;28;20051;-76
2023/04/02 04:04:52;;;;;;;3.47;1.98;;;2.20;99.90;;;;;;5094417;28;20044;-77
2023/04/02 04:07:26;;;;;;;3.13;1.88;;;2.40;99.90;;;;;;5093602;28;20080;-77
2023/04/02 04:09:53;;;;;;;3.83;1.83;;;2.30;99.90;;;;;;5093688;28;20131;-77
2023/04/02 04:12:30;;;;;;;4.95;1.95;;;2.20;99.90;;;;;;5093578;28;20543;-77
2023/04/02 04:15:06;;;;;;;4.57;1.90;;;2.10;99.90;;;;;;5076033;28;20485;-74
2023/04/02 04:18:09;;;;;;;4.22;2.15;;;2.10;99.90;;;;;;5094227;28;20056;-76
2023/04/02 04:20:45;;;;;;;3.95;2.72;;;2.10;99.90;;;;;;5075431;28;20111;-75
2023/04/02 04:23:34;;;;;;;4.85;1.80;;;2.30;99.90;;;;;;5076232;28;20047;-75
2023/04/02 04:26:18;;;;;;;3.38;2.05;;;2.20;99.90;;;;;;5093907;28;20132;-75
2023/04/02 04:29:14;;;;;;;2.72;1.63;;;2.10;99.90;;;;;;5093527;28;20047;-75
2023/04/02 04:31:45;;;;;;;4.47;2.20;;;2.10;99.90;;;;;;5075655;28;20052;-75
2023/04/02 04:34:41;;;;;;;5.57;2.25;;;2.10;99.90;;;;;;5093394;28;20074;-75
2023/04/02 04:37:20;;;;;;;4.90;2.08;;;2.00;99.90;;;;;;5093390;28;20079;-74
2023/04/02 04:40:08;;;;;;;4.22;2.13;;;2.00;99.90;;;;;;5093534;28;20048;-74
2023/04/02 04:42:38;;;;;;;3.80;1.75;;;2.00;99.90;;;;;;5094065;28;20044;-74
2023/04/02 04:45:48;;;;;;;2.42;1.55;;;2.00;99.90;;;;;;5094092;28;20048;-74
2023/04/02 04:48:25;;;;;;;3.63;2.05;;;1.90;99.90;;;;;;5088526;28;20098;-74
2023/04/02 04:51:16;;;;;;;2.97;2.00;;;1.80;99.90;;;;;;5093821;28;20074;-74
2023/04/02 04:53:48;;;;;;;6.30;2.00;;;1.80;99.90;;;;;;5079727;28;20087;-74
2023/04/02 04:56:19;;;;;;;5.55;2.10;;;1.80;99.90;;;;;;5097156;28;20055;-74
2023/04/02 04:59:00;;;;;;;4.68;2.55;;;1.80;99.90;;;;;;5097268;28;20047;-75
2023/04/02 05:01:38;;;;;;;5.93;2.10;;;1.80;99.90;;;;;;5097189;28;20056;-74
2023/04/02 05:04:11;;;;;;;4.00;2.20;;;1.80;99.90;;;;;;5078699;28;20141;-74
2023/04/02 05:06:41;;;;;;;4.25;2.30;;;1.80;99.90;;;;;;5096414;28;20084;-75
2023/04/02 05:09:33;;;;;;;4.60;3.40;;;1.80;99.90;;;;;;5096861;28;20060;-75
2023/04/02 05:12:05;;;;;;;6.40;2.50;;;1.70;99.90;;;;;;5096826;28;20048;-75
2023/04/02 05:14:38;;;;;;;3.00;2.20;;;1.70;99.90;;;;;;5096847;28;20055;-75
2023/04/02 05:17:18;;;;;;;2.70;1.98;;;1.70;99.90;;;;;;5097553;28;20169;-75
2023/04/02 05:20:14;;;;;;;3.60;2.33;;;1.70;99.90;;;;;;5096832;28;20052;-75
2023/04/02 05:22:53;;;;;;;4.70;1.90;;;1.70;99.90;;;;;;5097127;28;20435;-75
2023/04/02 05:25:26;;;;;;;3.92;1.60;;;1.70;99.90;;;;;;5096948;28;20471;-74
2023/04/02 05:27:57;;;;;;;3.22;1.73;;;1.70;99.90;;;;;;5079011;28;20044;-75
2023/04/02 05:30:23;;;;;;;6.00;1.92;;;1.80;99.90;;;;;;5078574;28;20094;-74
2023/04/02 05:33:01;;;;;;;5.85;1.60;;;1.80;99.90;;;;;;5096794;28;20090;-75
2023/04/02 05:35:32;;;;;;;3.00;1.30;;;1.80;99.90;;;;;;5096554;28;20044;-74
2023/04/02 05:38:00;;;;;;;4.78;1.38;;;1.80;99.90;;;;;;5097050;28;20111;-74
2023/04/02 05:40:37;;;;;;;2.97;1.40;;;1.90;99.90;;;;;;5097137;28;20115;-74
2023/04/02 05:43:08;;;;;;;2.88;1.70;;;1.90;99.90;;;;;;5096376;28;20040;-73
2023/04/02 05:45:37;;;;;;;5.53;1.20;;;1.90;99.90;;;;;;5096304;28;20127;-74
2023/04/02 05:48:18;;;;;;;4.60;1.25;;;2.00;99.90;;;;;;5096230;28;20063;-74
2023/04/02 05:50:48;;;;;;;5.53;1.42;;;2.00;99.90;;;;;;5096881;28;20044;-75
2023/04/02 05:53:23;;;;;;;2.22;1.00;;;2.00;99.90;;;;;;5097038;28;20044;-74
2023/04/02 05:55:52;;;;;;;1.70;1.00;;;2.00;99.90;;;;;;5096069;28;20044;-75
2023/04/02 05:58:50;;;;;;;4.68;1.48;;;2.10;99.90;;;;;;5096077;28;20040;-74
2023/04/02 06:01:32;;;;;;;2.30;1.15;;;2.10;99.90;;;;;;5076580;28;20408;-75
2023/04/02 06:04:22;;;;;;;3.45;1.50;;;2.10;99.90;;;;;;5095473;28;20056;-75
2023/04/02 06:06:59;;;;;;;3.33;1.30;;;2.10;99.90;;;;;;5096424;28;20040;-74
2023/04/02 06:09:38;;;;;;;2.95;1.23;;;2.10;99.90;;;;;;5096120;28;20052;-75
2023/04/02 06:12:26;;;;;;;3.00;1.50;;;2.10;99.90;;;;;;5096365;28;20101;-77
2023/04/02 06:14:52;;;;;;;2.38;1.10;;;2.20;99.90;;;;;;5095820;28;20079;-77
2023/04/02 06:17:19;;;;;;;4.80;1.50;;;2.20;99.90;;;;;;5095677;28;20079;-77
2023/04/02 06:19:46;;;;;;;6.35;2.28;;;2.30;99.90;;;;;;5077640;28;20131;-77
2023/04/02 06:22:38;;;;;;;2.38;1.20;;;2.50;99.90;;;;;;5095614;28;20548;-77
2023/04/02 06:25:28;;;;;;;4.68;1.70;;;2.40;99.90;;;;;;5095543;28;20045;-77
2023/04/02 06:27:57;;;;;;;2.83;1.20;;;2.40;99.90;;;;;;5096288;28;20405;-76
2023/04/02 06:30:29;;;;;;;3.65;1.20;;;2.50;99.90;;;;;;5095431;28;20044;-77
2023/04/02 06:32:55;;;;;;;4.05;1.30;;;2.90;99.90;;;;;;5095730;28;20040;-76
2023/04/02 06:35:21;;;;;;;3.22;0.93;;;2.70;99.90;;;;;;5095867;28;20358;-76
2023/04/02 06:37:50;;;;;;;2.83;1.10;;;2.50;99.90;;;;;;5095849;28;20437;-77
2023/04/02 06:40:36;;;;;;;3.25;1.10;;;2.50;99.90;;;;;;5095751;28;20044;-77
2023/04/02 06:43:08;;;;;;;2.20;0.90;;;2.60;99.90;;;;;;5095795;28;20048;-76
2023/04/02 06:45:40;;;;;;;4.15;1.33;;;2.60;99.90;;;;;;5095130;28;20044;-76
2023/04/02 06:48:16;;;;;;;1.90;0.85;;;2.60;99.90;;;;;;5095903;28;20044;-75
2023/04/02 06:50:47;;;;;;;3.70;1.35;;;2.70;99.90;;;;;;5095655;28;20040;-67
2023/04/02 06:53:21;;;;;;;4.43;2.38;;;2.80;99.90;;;;;;5095099;28;20476;-68
2023/04/02 06:55:56;;;;;;;5.57;1.77;;;2.80;99.90;;;;;;5095395;28;20048;-71
2023/04/02 06:58:21;;;;;;;2.72;1.30;;;2.90;99.90;;;;;;5094932;28;20047;-68
2023/04/02 07:00:49;;;;;;;3.15;1.25;;;2.90;99.90;;;;;;5095368;28;20055;-68
2023/04/02 07:03:15;;;;;;;2.30;1.23;;;3.00;99.90;;;;;;5094757;28;20044;-68
2023/04/02 07:05:40;;;;;;;3.58;1.20;;;3.40;99.90;;;;;;5076952;28;20049;-69
2023/04/02 07:08:06;;;;;;;4.05;1.10;;;3.10;99.90;;;;;;5094660;28;20051;-67
2023/04/02 07:10:33;;;;;;;4.50;1.02;;;3.20;99.90;;;;;;5094413;28;20554;-67
2023/04/02 07:13:01;;;;;;;4.57;1.30;;;3.30;99.90;;;;;;5094604;28;20048;-69
2023/04/02 07:15:27;;;;;;;3.90;0.88;;;3.60;99.90;;;;;;5093666;28;20101;-67
2023/04/02 07:17:56;;;;;;;2.88;0.95;;;3.40;99.90;;;;;;5094456;28;20051;-68
2023/04/02 07:20:37;;;;;;;3.15;1.10;;;3.50;99.90;;;;;;5094510;28;20052;-67
2023/04/02 07:23:03;;;;;;;3.13;0.95;;;3.40;99.90;;;;;;5076760;28;20059;-67
2023/04/02 07:25:29;;;;;;;2.38;1.13;;;3.70;99.90;;;;;;5094563;28;20057;-68
2023/04/02 07:27:55;;;;;;;2.40;1.00;;;3.50;99.90;;;;;;5076213;28;20385;-69
2023/04/02 07:30:21;;;;;;;4.00;1.70;;;3.90;99.90;;;;;;5076346;28;20451;-67
2023/04/02 07:32:47;;;;;;;4.15;1.15;;;3.70;99.90;;;;;;5094413;28;20439;-67
2023/04/02 07:35:14;;;;;;;3.53;1.20;;;3.60;99.90;;;;;;5094114;28;20040;-67
2023/04/02 07:37:40;;;;;;;2.28;1.05;;;3.70;99.90;;;;;;5094100;28;20489;-68
2023/04/02 07:40:14;;;;;;;3.45;1.02;;;3.90;99.90;;;;;;5094092;28;20135;-68
2023/04/02 07:42:40;;;;;;;2.85;1.27;;;4.10;99.90;;;;;;5094084;28;20054;-68
2023/04/02 07:45:06;;;;;;;3.08;1.30;;;4.20;99.90;;;;;;5093238;28;20032;-76
2023/04/02 07:47:32;;;;;;;2.90;1.45;;;4.30;99.90;;;;;;5093963;28;20590;-79
2023/04/02 07:49:57;;;;;;;2.88;1.55;;;4.30;99.90;;;;;;5093838;28;20123;-76
2023/04/02 07:52:23;;;;;;;5.18;1.92;;;4.10;99.90;;;;;;5075776;28;20430;-76
2023/04/02 07:54:49;;;;;;;4.90;1.50;;;4.00;99.90;;;;;;5093445;28;20055;-76
2023/04/02 07:57:14;;;;;;;9.13;1.60;;;3.80;99.90;;;;;;5093763;28;20048;-75
2023/04/02 07:59:40;;;;;;;2.85;1.20;;;3.80;99.90;;;;;;5093649;28;20044;-75
2023/04/02 08:02:06;;;;;;;2.95;1.55;;;3.90;99.90;;;;;;5093649;28;20047;-77
2023/04/02 08:04:31;;;;;;;4.00;1.63;;;4.00;99.90;;;;;;5093859;28;20044;-77
2023/04/02 08:06:57;;;;;;;3.42;1.20;;;4.00;99.90;;;;;;5093711;28;20508;-75
2023/04/02 08:09:23;;;;;;;2.72;1.30;;;4.00;99.90;;;;;;5093780;28;20427;-76
2023/04/02 08:11:48;;;;;;;3.05;1.40;;;4.00;99.90;;;;;;5093550;28;20044;-76
2023/04/02 08:14:14;;;;;;;3.28;1.42;;;3.90;99.90;;;;;;5093510;28;20369;-76
2023/04/02 08:16:54;;;;;;;4.13;1.52;;;4.00;99.90;;;;;;5093123;28;20040;-76
2023/04/02 08:19:21;;;;;;;4.00;1.50;;;4.00;99.90;;;;;;5093415;28;20087;-76
2023/04/02 08:21:50;;;;;;;2.72;1.10;;;4.20;99.90;;;;;;5094009;28;20044;-76
2023/04/02 08:24:18;;;;;;;4.93;1.50;;;4.50;99.90;;;;;;5075521;28;20044;-76
2023/04/02 08:26:45;;;;;;;3.22;1.42;;;4.70;99.90;;;;;;5093764;28;20122;-76
2023/04/02 08:29:11;;;;;;;6.15;1.98;;;4.90;99.90;;;;;;5093352;28;20422;-76
2023/04/02 08:31:37;;;;;;;2.67;1.38;;;5.10;99.90;;;;;;5093302;28;20044;-78
2023/04/02 08:34:03;;;;;;;2.90;1.42;;;5.30;99.90;;;;;;5093295;28;20047;-76
2023/04/02 08:36:33;;;;;;;6.07;1.60;;;5.40;99.90;;;;;;5093215;28;20098;-77
2023/04/02 08:38:59;;;;;;;3.00;1.30;;;5.50;99.90;;;;;;5075398;28;20139;-76
2023/04/02 08:41:26;;;;;;;4.22;1.30;;;5.60;99.90;;;;;;5093661;28;20044;-84
2023/04/02 08:44:12;;;;;;;4.05;1.40;;;5.60;99.90;;;;;;5075187;28;20052;-77
2023/04/02 08:46:48;;;;;;;1.95;1.30;;;5.80;99.90;;;;;;5093123;28;20445;-77
2023/04/02 08:49:18;;;;;;;2.30;0.95;;;5.90;99.90;;;;;;5093084;28;20044;-76
2023/04/02 08:51:46;;;;;;;4.50;1.30;;;6.00;99.90;;;;;;5093615;28;20415;-76
2023/04/02 08:54:23;;;;;;;3.67;1.05;;;6.10;99.90;;;;;;5092519;28;20044;-77
2023/04/02 08:57:15;;;;;;;3.30;1.67;;;6.20;99.90;;;;;;5093757;28;20137;-78
2023/04/02 08:59:43;;;;;;;2.00;1.05;;;6.40;99.90;;;;;;5080065;28;20135;-77
2023/04/02 09:02:26;;;;;;;3.25;1.30;;;6.50;99.90;;;;;;5076062;28;20097;-77
2023/04/02 09:04:53;;;;;;;4.03;1.17;;;6.60;99.90;;;;;;5075968;28;20050;-77
2023/04/02 09:07:19;;;;;;;1.98;1.13;;;6.80;99.90;;;;;;5093535;28;20052;-75
2023/04/02 09:09:49;;;;;;;3.83;1.10;;;7.00;99.90;;;;;;5075133;28;20040;-77
2023/04/02 09:12:20;;;;;;;3.22;1.17;;;7.20;99.90;;;;;;5093502;28;20417;-77
2023/04/02 09:15:10;;;;;;;1.88;1.02;;;7.30;99.90;;;;;;5092889;28;20051;-76
2023/04/02 09:17:37;;;;;;;5.22;1.35;;;7.50;99.90;;;;;;5074967;28;20063;-77
2023/04/02 09:20:25;;;;;;;2.22;1.25;;;7.50;99.90;;;;;;5093462;28;20044;-78
2023/04/02 09:22:51;;;;;;;3.28;1.10;;;7.50;99.90;;;;;;5092951;28;20083;-78
2023/04/02 09:25:26;;;;;;;2.75;1.10;;;7.40;99.90;;;;;;5074633;28;20040;-77
2023/04/02 09:27:55;;;;;;;2.78;1.30;;;7.40;99.90;;;;;;5074963;28;20138;-79
2023/04/02 09:30:29;;;;;;;2.47;1.15;;;7.40;99.90;;;;;;5093093;28;20044;-80
2023/04/02 09:32:56;;;;;;;5.03;1.20;;;7.50;99.90;;;;;;5075320;28;20047;-77
2023/04/02 09:35:31;;;;;;;2.47;1.10;;;7.70;99.90;;;;;;5092722;28;20052;-76
2023/04/02 09:38:15;;;;;;;3.50;1.10;;;7.70;99.90;;;;;;5094508;28;20113;-77
2023/04/02 09:41:05;;;;;;;3.47;1.40;;;7.90;99.90;;;;;;5096707;28;20066;-77
2023/04/02 09:43:36;;;;;;;3.75;1.13;;;8.10;99.90;;;;;;5096589;28;20087;-76
2023/04/02 09:46:23;;;;;;;2.47;1.35;;;8.30;99.90;;;;;;5096112;28;20040;-76
2023/04/02 09:48:53;;;;;;;3.42;1.10;;;8.50;99.90;;;;;;5096729;28;20196;-77
2023/04/02 09:51:24;;;;;;;3.13;1.20;;;8.50;99.90;;;;;;5096158;28;20458;-77
2023/04/02 09:54:02;;;;;;;3.55;1.30;;;8.50;99.90;;;;;;5096144;28;20048;-77
2023/04/02 09:56:30;;;;;;;2.85;1.20;;;8.50;99.90;;;;;;5096795;28;20036;-77
2023/04/02 09:59:15;;;;;;;2.03;1.10;;;8.60;99.90;;;;;;5096608;28;20070;-79
2023/04/02 10:01:44;;;;;;;3.00;1.38;;;8.70;99.90;;;;;;5095986;28;20052;-76
2023/04/02 10:04:35;;;;;;;3.20;1.30;;;8.80;99.90;;;;;;5095869;28;20036;-75
2023/04/02 10:07:01;;;;;;;3.75;1.10;;;9.00;99.90;;;;;;5096430;28;20048;-79
2023/04/02 10:09:34;;;;;;;3.03;0.90;;;8.90;99.90;;;;;;5061296;28;20052;-77
2023/04/02 10:12:03;;;;;;;2.75;1.20;;;8.80;99.90;;;;;;5095848;28;20059;-76
2023/04/02 10:14:45;;;;;;;2.97;0.98;;;8.90;99.90;;;;;;5095658;28;20062;-78
2023/04/02 10:17:15;;;;;;;2.33;1.00;;;9.00;99.90;;;;;;5095864;28;20420;-78
2023/04/02 10:19:54;;;;;;;3.95;1.00;;;9.10;99.90;;;;;;5096155;28;20059;-79
2023/04/02 10:22:22;;;;;;;2.75;1.10;;;9.20;99.90;;;;;;5096474;28;20380;-82
2023/04/02 10:24:49;;;;;;;3.15;0.90;;;9.30;99.90;;;;;;5077905;28;20040;-82
2023/04/02 10:27:44;;;;;;;3.08;1.15;;;9.40;99.90;;;;;;5095634;28;20453;-81
2023/04/02 10:30:19;;;;;;;1.80;0.80;;;9.50;99.90;;;;;;5095463;28;20051;-76
2023/04/02 10:32:50;;;;;;;2.65;0.90;;;9.60;99.90;;;;;;5095349;28;20131;-76
2023/04/02 10:35:47;;;;;;;2.45;0.90;;;9.80;99.90;;;;;;5077552;28;20109;-77
2023/04/02 10:38:30;;;;;;;2.63;0.85;;;9.90;99.90;;;;;;5095880;28;20125;-75
2023/04/02 10:41:18;;;;;;;3.10;0.95;;;10.10;99.90;;;;;;5095270;28;20047;-78
2023/04/02 10:43:58;;;;;;;3.10;1.08;;;10.10;99.90;;;;;;5095896;28;20044;-78
2023/04/02 10:46:24;;;;;;;1.63;0.80;;;10.20;99.90;;;;;;5095019;28;20039;-77
2023/04/02 10:49:34;;;;;;;5.72;1.40;;;10.30;99.90;;;;;;5094880;28;20047;-76
2023/04/02 10:52:12;;;;;;;3.75;0.80;;;10.50;99.90;;;;;;5071970;28;20052;-77
2023/04/02 10:54:47;;;;;;;2.42;0.90;;;10.80;99.90;;;;;;5094928;28;20040;-80
2023/04/02 10:57:31;;;;;;;1.95;0.90;;;10.90;99.90;;;;;;5077295;28;20075;-77
2023/04/02 11:00:09;;;;;;;1.80;0.90;;;11.00;99.90;;;;;;5076763;28;20047;-80
2023/04/02 11:03:29;;;;;;;3.00;1.00;;;11.10;99.90;;;;;;5094815;28;20477;-77
2023/04/02 11:06:00;;;;;;;2.47;0.88;;;11.20;99.90;;;;;;4992997;28;20081;-78
2023/04/02 11:08:45;;;;;;;3.53;0.90;;;11.30;99.90;;;;;;4977217;28;20108;-77
2023/04/02 11:11:19;;;;;;;2.22;0.98;;;11.50;99.90;;;;;;5067623;28;20134;-77
2023/04/02 11:13:44;;;;;;;2.22;0.90;;;11.60;99.90;;;;;;5095198;28;20131;-77
2023/04/02 11:16:16;;;;;;;1.85;0.77;;;11.70;99.90;;;;;;5094795;28;20080;-77
2023/04/02 11:18:43;;;;;;;2.38;0.80;;;11.90;99.90;;;;;;5076938;28;20052;-76
2023/04/02 11:21:43;;;;;;;2.65;0.98;;;12.00;99.90;;;;;;5094442;28;20055;-79
2023/04/02 11:24:37;;;;;;;3.35;1.10;;;12.00;99.90;;;;;;5094395;28;20062;-76
2023/04/02 11:27:09;;;;;;;2.35;0.82;;;12.10;99.90;;;;;;5056864;28;20052;-76
2023/04/02 11:30:02;;;;;;;2.38;1.02;;;12.10;99.90;;;;;;5094342;28;20048;-77
2023/04/02 11:32:41;;;;;;;2.10;0.90;;;12.30;99.90;;;;;;5048469;28;20060;-79
2023/04/02 11:35:30;;;;;;;1.92;0.80;;;12.40;99.90;;;;;;5059895;28;20054;-78
2023/04/02 11:38:03;;;;;;;2.22;0.70;;;12.50;99.90;;;;;;5094236;28;20079;-76
2023/04/02 11:40:45;;;;;;;2.97;1.10;;;12.30;99.90;;;;;;5077318;28;20098;-81
2023/04/02 11:43:30;;;;;;;2.60;0.80;;;12.20;99.90;;;;;;5093985;28;20048;-78
2023/04/02 11:45:57;;;;;;;2.67;0.82;;;12.30;99.90;;;;;;5093926;28;20036;-76
2023/04/02 11:48:23;;;;;;;2.38;1.10;;;12.50;99.90;;;;;;5093537;28;20489;-77
2023/04/02 11:50:48;;;;;;;2.47;0.90;;;12.70;99.90;;;;;;5094713;28;20105;-76
2023/04/02 11:53:14;;;;;;;2.85;0.80;;;12.90;99.90;;;;;;5093598;28;20088;-74
2023/04/02 11:55:42;;;;;;;2.17;0.80;;;12.80;99.90;;;;;;5093810;28;20044;-75
2023/04/02 11:58:27;;;;;;;2.03;1.02;;;12.80;99.90;;;;;;5094280;28;20048;-79
2023/04/02 12:00:58;;;;;;;2.92;1.10;;;12.60;99.90;;;;;;5093846;28;20378;-75
2023/04/02 12:03:28;;;;;;;2.97;0.90;;;12.40;99.90;;;;;;5093728;28;20071;-74
2023/04/02 12:06:05;;;;;;;2.00;0.90;;;12.30;99.90;;;;;;5093682;28;20086;-76
2023/04/02 12:08:46;;;;;;;2.83;1.10;;;12.50;99.90;;;;;;5093939;28;20504;-79
2023/04/02 12:11:13;;;;;;;2.13;0.85;;;12.60;99.90;;;;;;5094229;28;20096;-76
2023/04/02 12:13:39;;;;;;;2.30;1.08;;;12.90;99.90;;;;;;5075822;28;20422;-77
2023/04/02 12:16:12;;;;;;;2.65;0.90;;;13.40;99.90;;;;;;5093484;28;20040;-77
2023/04/02 12:18:45;;;;;;;2.42;0.85;;;13.80;99.90;;;;;;5094637;28;20059;-77
2023/04/02 12:21:20;;;;;;;2.55;0.90;;;14.20;99.90;;;;;;5093493;28;20055;-75
2023/04/02 12:23:47;;;;;;;2.55;1.05;;;14.50;99.90;;;;;;5075697;28;20048;-74
2023/04/02 12:26:45;;;;;;;2.13;0.80;;;14.80;99.90;;;;;;5093342;28;20040;-79
2023/04/02 12:29:27;;;;;;;1.88;0.85;;;15.20;99.90;;;;;;5073783;28;20606;-76
2023/04/02 12:31:55;;;;;;;1.33;0.60;;;15.60;99.90;;;;;;5075938;28;20090;-76
2023/04/02 12:34:26;;;;;;;2.00;0.88;;;15.80;99.90;;;;;;5093321;28;20080;-77
2023/04/02 12:36:52;;;;;;;2.30;0.80;;;15.70;99.90;;;;;;5093401;28;20040;-76
2023/04/02 12:39:19;;;;;;;2.58;0.80;;;15.80;99.90;;;;;;5093319;28;20044;-77
2023/04/02 12:41:44;;;;;;;2.20;0.68;;;15.90;99.90;;;;;;5075529;28;20456;-78
2023/04/02 12:44:20;;;;;;;1.52;0.80;;;16.00;99.90;;;;;;5093293;28;20058;-78
2023/04/02 12:46:47;;;;;;;1.60;0.85;;;16.10;99.90;;;;;;5093996;28;20117;-76
2023/04/02 12:49:19;;;;;;;2.50;0.80;;;16.30;99.90;;;;;;5093893;28;20140;-77
2023/04/02 12:51:46;;;;;;;1.85;0.70;;;16.70;99.90;;;;;;5093125;28;20137;-75
2023/04/02 12:54:17;;;;;;;1.48;0.73;;;16.90;99.90;;;;;;5093145;28;20048;-77
2023/04/02 12:56:43;;;;;;;3.08;1.00;;;17.20;99.90;;;;;;5092857;28;20044;-74
2023/04/02 12:59:38;;;;;;;2.65;0.70;;;17.60;99.90;;;;;;5093176;28;20115;-75
2023/04/02 13:02:26;;;;;;;2.67;0.80;;;17.80;99.90;;;;;;5092920;28;20055;-77
2023/04/02 13:04:59;;;;;;;2.60;0.73;;;17.90;99.90;;;;;;5075358;28;20093;-75
2023/04/02 13:07:28;;;;;;;1.98;0.70;;;18.10;99.90;;;;;;5093463;28;20036;-74
2023/04/02 13:10:05;;;;;;;2.88;0.93;;;18.10;99.90;;;;;;5093524;28;20142;-75
2023/04/02 13:12:34;;;;;;;1.67;0.70;;;18.00;99.90;;;;;;5076702;28;20066;-75
2023/04/02 13:15:04;;;;;;;2.35;0.80;;;18.10;99.90;;;;;;5080130;28;20059;-77
2023/04/02 13:17:45;;;;;;;1.48;0.60;;;18.50;99.90;;;;;;5097355;28;20052;-75
2023/04/02 13:20:33;;;;;;;2.10;0.70;;;18.80;99.90;;;;;;5096854;28;20051;-75
2023/04/02 13:23:01;;;;;;;2.13;0.70;;;19.10;99.90;;;;;;5096687;28;20469;-75
2023/04/02 13:25:35;;;;;;;2.92;0.80;;;19.00;99.90;;;;;;5078976;28;20040;-77
2023/04/02 13:28:01;;;;;;;2.50;0.90;;;18.60;99.90;;;;;;5096552;28;20040;-75
2023/04/02 13:30:27;;;;;;;1.80;0.80;;;17.80;99.90;;;;;;5096930;28;20116;-76
2023/04/02 13:32:55;;;;;;;2.75;0.90;;;17.10;99.90;;;;;;5097085;28;20067;-76
2023/04/02 13:35:21;;;;;;;1.70;0.80;;;16.50;99.90;;;;;;5096509;28;20040;-75